createdAt,value
2022-10-13T00:01:16.670Z,100855.47
2022-10-13T00:03:47.571Z,100846.91
2022-10-13T00:06:25.716Z,100851.56
2022-10-13T00:08:54.605Z,100858.91
2022-10-13T00:11:27.660Z,100857.75
2022-10-13T00:13:59.327Z,100860.03
2022-10-13T00:16:31.424Z,100858.50
2022-10-13T00:18:59.597Z,100859.22
2022-10-13T00:21:28.194Z,100856.09
2022-10-13T00:23:56.414Z,100858.38
2022-10-13T00:26:26.845Z,100852.19
2022-10-13T00:28:56.671Z,100857.53
2022-10-13T00:31:31.411Z,100850.56
2022-10-13T00:34:01.226Z,100850.94
2022-10-13T00:36:29.540Z,100839.31
2022-10-13T00:38:57.985Z,100838.91
2022-10-13T00:41:25.932Z,100839.63
2022-10-13T00:44:03.808Z,100831.09
2022-10-13T00:46:35.107Z,100830.25
2022-10-13T00:49:09.642Z,100833.69
2022-10-13T00:51:44.377Z,100830.91
2022-10-13T00:54:17.531Z,100833.97
2022-10-13T00:56:46.791Z,100824.28
2022-10-13T00:59:23.242Z,100822.31
2022-10-13T01:01:53.983Z,100816.06
2022-10-13T01:04:27.372Z,100818.34
2022-10-13T01:06:56.866Z,100816.78
2022-10-13T01:09:24.626Z,100814.06
2022-10-13T01:12:28.926Z,100812.88
2022-10-13T01:15:05.624Z,100812.03
2022-10-13T01:18:10.757Z,100809.69
2022-10-13T01:21:06.496Z,100798.84
2022-10-13T01:23:42.577Z,100813.19
2022-10-13T01:27:16.174Z,100817.78
2022-10-13T01:30:12.106Z,100813.13
2022-10-13T01:32:51.393Z,100813.47
2022-10-13T01:35:43.030Z,100809.19
2022-10-13T01:38:39.928Z,100813.84
2022-10-13T01:41:29.298Z,100816.53
2022-10-13T01:44:22.692Z,100813.44
2022-10-13T01:46:57.222Z,100811.84
2022-10-13T01:49:31.582Z,100810.28
2022-10-13T01:52:06.421Z,100811.06
2022-10-13T01:54:34.450Z,100806.44
2022-10-13T01:57:02.580Z,100811.06
2022-10-13T01:59:36.115Z,100804.88
2022-10-13T02:02:22.731Z,100814.81
2022-10-13T02:05:33.158Z,100803.16
2022-10-13T02:08:24.186Z,100813.53
2022-10-13T02:11:13.472Z,100808.13
2022-10-13T02:14:06.409Z,100803.09
2022-10-13T02:16:40.397Z,100807.72
2022-10-13T02:19:14.605Z,100793.06
2022-10-13T02:21:42.914Z,100795.78
2022-10-13T02:24:11.344Z,100803.88
2022-10-13T02:26:38.904Z,100798.47
2022-10-13T02:29:17.247Z,100797.66
2022-10-13T02:31:45.918Z,100798.06
2022-10-13T02:34:15.021Z,100793.00
2022-10-13T02:36:48.379Z,100790.66
2022-10-13T02:39:17.930Z,100795.25
2022-10-13T02:41:45.405Z,100792.94
2022-10-13T02:44:12.923Z,100785.59
2022-10-13T02:46:43.256Z,100778.19
2022-10-13T02:49:11.066Z,100782.84
2022-10-13T02:51:40.300Z,100787.44
2022-10-13T02:54:08.738Z,100787.84
2022-10-13T02:56:36.211Z,100782.03
2022-10-13T02:59:03.959Z,100777.44
2022-10-13T03:01:31.900Z,100775.84
2022-10-13T03:03:59.652Z,100778.97
2022-10-13T03:06:27.341Z,100776.72
2022-10-13T03:08:55.133Z,100777.50
2022-10-13T03:11:22.684Z,100777.13
2022-10-13T03:13:50.181Z,100779.13
2022-10-13T03:16:18.047Z,100786.09
2022-10-13T03:18:45.636Z,100783.44
2022-10-13T03:21:13.138Z,100788.91
2022-10-13T03:23:40.880Z,100790.13
2022-10-13T03:26:08.380Z,100794.03
2022-10-13T03:28:35.819Z,100797.59
2022-10-13T03:31:09.576Z,100799.50
2022-10-13T03:33:37.267Z,100792.91
2022-10-13T03:36:07.521Z,100794.75
2022-10-13T03:38:36.145Z,100792.75
2022-10-13T03:41:13.804Z,100792.34
2022-10-13T03:43:43.507Z,100790.00
2022-10-13T03:46:12.550Z,100795.34
2022-10-13T03:48:41.897Z,100781.38
2022-10-13T03:51:14.077Z,100793.38
2022-10-13T03:53:47.346Z,100793.38
2022-10-13T03:56:20.153Z,100789.09
2022-10-13T03:58:57.659Z,100791.78
2022-10-13T04:01:30.231Z,100793.72
2022-10-13T04:04:00.160Z,100794.06
2022-10-13T04:06:28.696Z,100787.09
2022-10-13T04:08:56.672Z,100786.69
2022-10-13T04:11:24.494Z,100791.66
2022-10-13T04:13:53.050Z,100780.44
2022-10-13T04:16:25.070Z,100784.63
2022-10-13T04:19:01.197Z,100778.03
2022-10-13T04:21:31.094Z,100783.44
2022-10-13T04:24:00.506Z,100785.72
2022-10-13T04:26:30.777Z,100787.19
2022-10-13T04:29:00.089Z,100785.56
2022-10-13T04:31:30.678Z,100784.00
2022-10-13T04:33:59.053Z,100788.97
2022-10-13T04:36:27.391Z,100783.94
2022-10-13T04:38:55.959Z,100780.03
2022-10-13T04:41:24.190Z,100781.53
2022-10-13T04:43:53.390Z,100781.53
2022-10-13T04:46:25.373Z,100795.41
2022-10-13T04:48:55.749Z,100787.66
2022-10-13T04:51:29.547Z,100788.38
2022-10-13T04:54:01.166Z,100788.72
2022-10-13T04:56:29.338Z,100787.53
2022-10-13T04:59:05.496Z,100785.81
2022-10-13T05:01:33.915Z,100786.44
2022-10-13T05:04:03.839Z,100783.59
2022-10-13T05:06:58.973Z,100780.91
2022-10-13T05:09:29.009Z,100785.16
2022-10-13T05:11:57.367Z,100791.78
2022-10-13T05:14:25.047Z,100786.38
2022-10-13T05:16:52.453Z,100785.22
2022-10-13T05:19:20.535Z,100792.91
2022-10-13T05:21:49.878Z,100797.19
2022-10-13T05:24:17.730Z,100799.53
2022-10-13T05:26:47.951Z,100791.44
2022-10-13T05:29:15.465Z,100797.97
2022-10-13T05:31:43.261Z,100801.78
2022-10-13T05:34:11.342Z,100802.59
2022-10-13T05:36:38.887Z,100801.03
2022-10-13T05:39:08.441Z,100808.78
2022-10-13T05:41:35.978Z,100802.59
2022-10-13T05:44:10.485Z,100813.34
2022-10-13T05:46:44.741Z,100806.78
2022-10-13T05:49:12.692Z,100813.75
2022-10-13T05:52:04.464Z,100820.69
2022-10-13T05:54:42.202Z,100824.97
2022-10-13T05:57:28.808Z,100821.16
2022-10-13T06:00:19.478Z,100828.91
2022-10-13T06:03:04.358Z,100832.38
2022-10-13T06:05:33.050Z,100838.22
2022-10-13T06:08:00.870Z,100835.59
2022-10-13T06:10:29.274Z,100842.63
2022-10-13T06:12:56.788Z,100832.25
2022-10-13T06:15:27.954Z,100843.19
2022-10-13T06:17:57.246Z,100841.78
2022-10-13T06:20:25.341Z,100840.00
2022-10-13T06:22:54.586Z,100833.53
2022-10-13T06:25:22.205Z,100833.22
2022-10-13T06:27:49.658Z,100830.94
2022-10-13T06:30:17.187Z,100831.47
2022-10-13T06:32:44.884Z,100830.00
2022-10-13T06:35:12.479Z,100829.34
2022-10-13T06:37:40.309Z,100829.47
2022-10-13T06:40:11.582Z,100831.91
2022-10-13T06:42:39.369Z,100832.06
2022-10-13T06:45:13.570Z,100839.13
2022-10-13T06:47:41.486Z,100844.69
2022-10-13T06:50:09.537Z,100835.13
2022-10-13T06:52:37.795Z,100839.88
2022-10-13T06:55:06.218Z,100849.63
2022-10-13T06:57:34.086Z,100848.16
2022-10-13T07:00:06.149Z,100851.34
2022-10-13T07:02:34.792Z,100847.53
2022-10-13T07:05:02.302Z,100851.81
2022-10-13T07:07:30.320Z,100844.53
2022-10-13T07:09:57.969Z,100847.31
2022-10-13T07:12:25.702Z,100843.50
2022-10-13T07:14:53.198Z,100841.19
2022-10-13T07:17:21.157Z,100838.56
2022-10-13T07:19:49.308Z,100839.38
2022-10-13T07:22:17.020Z,100842.50
2022-10-13T07:24:44.840Z,100840.19
2022-10-13T07:27:12.521Z,100834.09
2022-10-13T07:29:39.999Z,100834.97
2022-10-13T07:32:07.824Z,100842.34
2022-10-13T07:34:35.396Z,100838.19
2022-10-13T07:37:02.949Z,100836.69
2022-10-13T07:39:30.971Z,100829.06
2022-10-13T07:41:58.470Z,100833.38
2022-10-13T07:44:26.461Z,100836.59
2022-10-13T07:46:53.953Z,100833.22
2022-10-13T07:49:22.098Z,100831.03
2022-10-13T07:51:49.512Z,100834.22
2022-10-13T07:54:23.716Z,100833.47
2022-10-13T07:56:56.167Z,100837.84
2022-10-13T07:59:23.561Z,100839.88
2022-10-13T08:01:51.967Z,100827.53
2022-10-13T08:04:19.823Z,100834.97
2022-10-13T08:06:47.735Z,100828.09
2022-10-13T08:09:15.245Z,100822.34
2022-10-13T08:11:42.918Z,100828.16
2022-10-13T08:14:13.514Z,100821.25
2022-10-13T08:16:48.572Z,100829.44
2022-10-13T08:19:22.052Z,100814.75
2022-10-13T08:21:58.070Z,100821.00
2022-10-13T08:24:26.877Z,100828.84
2022-10-13T08:26:55.570Z,100824.28
2022-10-13T08:29:24.072Z,100821.25
2022-10-13T08:31:53.669Z,100810.84
2022-10-13T08:34:25.733Z,100820.59
2022-10-13T08:36:56.445Z,100820.28
2022-10-13T08:39:43.395Z,100815.66
2022-10-13T08:42:29.628Z,100812.56
2022-10-13T08:48:18.123Z,100805.25
2022-10-13T08:50:52.105Z,100800.97
2022-10-13T08:53:47.078Z,100809.56
2022-10-13T08:56:26.244Z,100811.50
2022-10-13T08:58:56.671Z,100802.97
2022-10-13T09:01:34.323Z,100806.88
2022-10-13T09:04:11.122Z,100810.41
2022-10-13T09:06:51.906Z,100813.91
2022-10-13T09:09:19.932Z,100817.41
2022-10-13T09:11:50.407Z,100816.25
2022-10-13T09:14:35.025Z,100816.66
2022-10-13T09:17:28.719Z,100815.91
2022-10-13T09:20:07.272Z,100815.53
2022-10-13T09:22:39.988Z,100814.00
2022-10-13T09:25:07.399Z,100810.88
2022-10-13T09:27:58.727Z,100812.84
2022-10-13T09:30:33.852Z,100808.94
2022-10-13T09:33:13.118Z,100816.72
2022-10-13T09:35:46.892Z,100812.44
2022-10-13T09:38:26.088Z,100805.44
2022-10-13T09:41:22.418Z,100799.19
2022-10-13T09:43:50.021Z,100801.16
2022-10-13T09:46:27.785Z,100797.66
2022-10-13T09:49:03.872Z,100790.63
2022-10-13T09:51:37.183Z,100792.59
2022-10-13T09:54:35.736Z,100792.97
2022-10-13T09:57:26.227Z,100787.50
2022-10-13T10:00:29.964Z,100785.59
2022-10-13T10:03:22.017Z,100784.41
2022-10-13T10:05:56.308Z,100781.28
2022-10-13T10:09:03.355Z,100771.56
2022-10-13T10:11:41.914Z,100773.50
2022-10-13T10:14:29.378Z,100770.38
2022-10-13T10:17:27.942Z,100765.31
2022-10-13T10:20:26.407Z,100761.03
2022-10-13T10:23:37.158Z,100759.47
2022-10-13T10:26:32.850Z,100759.47
2022-10-13T10:29:25.214Z,100753.63
2022-10-13T10:32:13.001Z,100750.53
2022-10-13T10:34:58.101Z,100751.28
2022-10-13T10:37:48.779Z,100747.00
2022-10-13T10:41:05.441Z,100746.22
2022-10-13T10:43:40.030Z,100732.97
2022-10-13T10:46:24.238Z,100743.88
2022-10-13T10:48:58.894Z,100736.81
2022-10-13T10:51:36.775Z,100739.91
2022-10-13T10:54:34.123Z,100732.81
2022-10-13T10:57:10.416Z,100736.69
2022-10-13T10:59:53.165Z,100732.75
2022-10-13T11:02:50.531Z,100721.00
2022-10-13T11:05:18.527Z,100726.41
2022-10-13T11:07:46.557Z,100725.63
2022-10-13T11:10:14.072Z,100726.72
2022-10-13T11:12:52.591Z,100718.84
2022-10-13T11:15:31.271Z,100723.84
2022-10-13T11:17:59.129Z,100705.81
2022-10-13T11:20:46.415Z,100700.28
2022-10-13T11:23:13.996Z,100706.88
2022-10-13T11:25:43.738Z,100699.78
2022-10-13T11:28:23.540Z,100698.09
2022-10-13T11:31:17.995Z,100687.50
2022-10-13T11:33:47.854Z,100674.97
2022-10-13T11:36:56.630Z,100676.47
2022-10-13T11:39:27.840Z,100670.13
2022-10-13T11:42:04.810Z,100663.00
2022-10-13T11:45:18.634Z,100660.16
2022-10-13T11:48:19.863Z,100660.47
2022-10-13T11:51:01.183Z,100653.75
2022-10-13T11:54:13.144Z,100643.91
2022-10-13T11:56:49.056Z,100648.06
2022-10-13T11:59:29.509Z,100638.28
2022-10-13T12:02:18.875Z,100640.66
2022-10-13T12:05:19.757Z,100641.16
2022-10-13T12:07:49.501Z,100634.16
2022-10-13T12:10:32.130Z,100629.13
2022-10-13T12:13:01.594Z,100635.16
2022-10-13T12:15:41.989Z,100632.84
2022-10-13T12:18:40.643Z,100638.66
2022-10-13T12:21:15.267Z,100639.38
2022-10-13T12:23:43.276Z,100634.59
2022-10-13T12:26:25.333Z,100629.03
2022-10-13T12:28:57.922Z,100627.28
2022-10-13T12:31:40.417Z,100621.59
2022-10-13T12:34:29.232Z,100624.25
2022-10-13T12:37:33.407Z,100618.63
2022-10-13T12:40:04.526Z,100614.75
2022-10-13T12:42:35.474Z,100617.97
2022-10-13T12:45:04.577Z,100618.31
2022-10-13T12:47:58.507Z,100604.47
2022-10-13T12:50:28.814Z,100612.03
2022-10-13T12:53:20.556Z,100611.78
2022-10-13T12:56:03.690Z,100618.63
2022-10-13T12:58:35.254Z,100609.03
2022-10-13T13:01:14.907Z,100604.47
2022-10-13T13:03:44.552Z,100610.06
2022-10-13T13:06:28.386Z,100603.44
2022-10-13T13:09:09.933Z,100596.31
2022-10-13T13:11:39.208Z,100595.78
2022-10-13T13:14:38.062Z,100597.56
2022-10-13T13:17:45.369Z,100591.66
2022-10-13T13:20:34.890Z,100590.25
2022-10-13T13:23:02.614Z,100584.19
2022-10-13T13:25:30.087Z,100584.47
2022-10-13T13:27:57.549Z,100586.38
2022-10-13T13:30:26.507Z,100589.13
2022-10-13T13:32:53.978Z,100587.34
2022-10-13T13:35:21.457Z,100596.25
2022-10-13T13:37:53.393Z,100584.16
2022-10-13T13:40:24.891Z,100593.47
2022-10-13T13:42:53.667Z,100590.69
2022-10-13T13:45:24.966Z,100589.84
2022-10-13T13:47:59.459Z,100586.19
2022-10-13T13:50:38.174Z,100587.75
2022-10-13T13:53:06.549Z,100594.75
2022-10-13T13:55:34.232Z,100584.75
2022-10-13T13:58:02.327Z,100578.97
2022-10-13T14:00:29.866Z,100570.66
2022-10-13T14:02:57.979Z,100578.97
2022-10-13T14:05:26.051Z,100579.16
2022-10-13T14:07:57.719Z,100579.06
2022-10-13T14:10:26.780Z,100582.44
2022-10-13T14:12:54.609Z,100577.03
2022-10-13T14:15:25.836Z,100567.03
2022-10-13T14:17:56.656Z,100575.41
2022-10-13T14:20:24.134Z,100570.16
2022-10-13T14:22:51.843Z,100577.09
2022-10-13T14:25:19.957Z,100572.81
2022-10-13T14:27:47.425Z,100568.81
2022-10-13T14:30:15.125Z,100569.47
2022-10-13T14:32:42.885Z,100573.19
2022-10-13T14:35:10.713Z,100560.84
2022-10-13T14:37:38.581Z,100564.63
2022-10-13T14:40:07.277Z,100562.06
2022-10-13T14:42:34.704Z,100564.91
2022-10-13T14:45:06.650Z,100560.78
2022-10-13T14:47:35.143Z,100565.56
2022-10-13T14:50:02.912Z,100561.44
2022-10-13T14:52:30.926Z,100566.16
2022-10-13T14:54:58.768Z,100570.44
2022-10-13T14:57:26.460Z,100570.97
2022-10-13T14:59:56.876Z,100575.25
2022-10-13T15:02:28.366Z,100570.09
2022-10-13T15:04:56.093Z,100566.59
2022-10-13T15:07:23.848Z,100567.34
2022-10-13T15:10:04.175Z,100563.94
2022-10-13T15:12:34.263Z,100564.19
2022-10-13T15:15:02.641Z,100565.22
2022-10-13T15:17:31.627Z,100567.97
2022-10-13T15:19:59.797Z,100556.81
2022-10-13T15:22:27.368Z,100569.31
2022-10-13T15:24:54.915Z,100554.78
2022-10-13T15:27:23.678Z,100551.31
2022-10-13T15:29:51.199Z,100561.41
2022-10-13T15:32:20.457Z,100556.50
2022-10-13T15:34:55.852Z,100557.03
2022-10-13T15:37:23.490Z,100555.88
2022-10-13T15:39:56.916Z,100552.34
2022-10-13T15:42:25.368Z,100552.59
2022-10-13T15:45:10.493Z,100549.69
2022-10-13T15:47:39.008Z,100553.81
2022-10-13T15:50:07.887Z,100548.50
2022-10-13T15:52:40.475Z,100556.41
2022-10-13T15:55:11.308Z,100549.09
2022-10-13T15:57:39.733Z,100551.13
2022-10-13T16:00:09.794Z,100554.63
2022-10-13T16:02:44.217Z,100556.59
2022-10-13T16:05:13.502Z,100541.88
2022-10-13T16:07:42.034Z,100546.13
2022-10-13T16:10:12.344Z,100542.25
2022-10-13T16:12:44.412Z,100548.06
2022-10-13T16:15:17.661Z,100549.56
2022-10-13T16:17:48.437Z,100540.25
2022-10-13T16:20:15.996Z,100537.91
2022-10-13T16:22:43.954Z,100541.78
2022-10-13T16:25:12.255Z,100551.81
2022-10-13T16:27:44.098Z,100544.44
2022-10-13T16:30:12.955Z,100557.59
2022-10-13T16:32:41.051Z,100546.34
2022-10-13T16:35:09.144Z,100545.53
2022-10-13T16:37:36.908Z,100555.63
2022-10-13T16:40:04.751Z,100564.91
2022-10-13T16:42:32.513Z,100562.53
2022-10-13T16:44:59.923Z,100560.97
2022-10-13T16:47:28.236Z,100555.13
2022-10-13T16:49:55.844Z,100558.56
2022-10-13T16:52:24.767Z,100554.69
2022-10-13T16:54:52.706Z,100560.47
2022-10-13T16:57:20.958Z,100566.66
2022-10-13T16:59:49.863Z,100561.97
2022-10-13T17:02:17.338Z,100570.09
2022-10-13T17:04:45.128Z,100569.31
2022-10-13T17:07:13.335Z,100575.13
2022-10-13T17:09:41.112Z,100568.53
2022-10-13T17:12:08.706Z,100571.66
2022-10-13T17:14:36.740Z,100572.41
2022-10-13T17:17:04.338Z,100573.94
2022-10-13T17:19:32.310Z,100574.72
2022-10-13T17:21:59.819Z,100574.69
2022-10-13T17:24:27.621Z,100566.13
2022-10-13T17:26:55.142Z,100563.03
2022-10-13T17:29:22.867Z,100566.13
2022-10-13T17:31:52.479Z,100562.25
2022-10-13T17:34:22.777Z,100562.22
2022-10-13T17:36:52.006Z,100555.22
2022-10-13T17:39:19.741Z,100554.00
2022-10-13T17:41:47.216Z,100553.22
2022-10-13T17:44:20.212Z,100555.13
2022-10-13T17:46:49.998Z,100559.75
2022-10-13T17:49:18.311Z,100551.22
2022-10-13T17:51:46.584Z,100549.63
2022-10-13T17:54:16.609Z,100549.22
2022-10-13T17:56:45.993Z,100546.47
2022-10-13T17:59:15.733Z,100558.06
2022-10-13T18:01:44.990Z,100553.38
2022-10-13T18:04:16.483Z,100558.00
2022-10-13T18:06:46.709Z,100554.50
2022-10-13T18:09:22.303Z,100554.06
2022-10-13T18:11:54.678Z,100548.25
2022-10-13T18:14:24.983Z,100544.78
2022-10-13T18:16:53.336Z,100541.66
2022-10-13T18:19:21.708Z,100542.44
2022-10-13T18:21:50.279Z,100544.72
2022-10-13T18:24:17.827Z,100549.34
2022-10-13T18:26:46.469Z,100547.03
2022-10-13T18:29:14.383Z,100544.69
2022-10-13T18:31:42.834Z,100547.78
2022-10-13T18:34:17.407Z,100536.13
2022-10-13T18:36:50.392Z,100533.81
2022-10-13T18:39:25.811Z,100534.56
2022-10-13T18:41:57.471Z,100539.16
2022-10-13T18:44:34.517Z,100542.19
2022-10-13T18:47:03.602Z,100548.34
2022-10-13T18:49:31.578Z,100547.19
2022-10-13T18:52:00.994Z,100545.97
2022-10-13T18:54:32.111Z,100553.72
2022-10-13T18:56:59.714Z,100545.19
2022-10-13T18:59:27.424Z,100547.50
2022-10-13T19:01:55.345Z,100547.50
2022-10-13T19:04:23.671Z,100550.56
2022-10-13T19:06:51.293Z,100552.06
2022-10-13T19:09:19.647Z,100540.44
2022-10-13T19:11:47.306Z,100546.22
2022-10-13T19:14:16.973Z,100549.66
2022-10-13T19:16:45.290Z,100547.31
2022-10-13T19:19:14.244Z,100549.22
2022-10-13T19:21:42.704Z,100551.13
2022-10-13T19:24:11.755Z,100551.84
2022-10-13T19:26:41.615Z,100555.28
2022-10-13T19:29:13.073Z,100553.31
2022-10-13T19:31:42.780Z,100546.38
2022-10-13T19:34:12.339Z,100544.38
2022-10-13T19:36:44.608Z,100548.56
2022-10-13T19:39:37.749Z,100552.34
2022-10-13T19:42:19.446Z,100555.47
2022-10-13T19:44:47.247Z,100555.38
2022-10-13T19:47:14.770Z,100552.28
2022-10-13T19:49:42.235Z,100553.81
2022-10-13T19:52:10.008Z,100551.81
2022-10-13T19:54:40.645Z,100557.22
2022-10-13T19:57:09.274Z,100551.41
2022-10-13T19:59:38.579Z,100547.13
2022-10-13T20:02:06.099Z,100546.72
2022-10-13T20:04:33.825Z,100541.69
2022-10-13T20:07:01.889Z,100537.78
2022-10-13T20:09:29.488Z,100550.50
2022-10-13T20:11:57.153Z,100542.75
2022-10-13T20:14:24.907Z,100543.91
2022-10-13T20:16:53.520Z,100544.63
2022-10-13T20:19:21.128Z,100546.13
2022-10-13T20:21:51.795Z,100544.97
2022-10-13T20:24:23.804Z,100543.38
2022-10-13T20:26:52.929Z,100529.88
2022-10-13T20:29:32.788Z,100538.78
2022-10-13T20:32:32.184Z,100540.28
2022-10-13T20:35:00.537Z,100540.28
2022-10-13T20:37:28.645Z,100537.94
2022-10-13T20:39:57.213Z,100539.09
2022-10-13T20:42:25.065Z,100527.91
2022-10-13T20:44:52.820Z,100540.28
2022-10-13T20:47:20.762Z,100532.16
2022-10-13T20:49:48.719Z,100540.28
2022-10-13T20:52:17.072Z,100530.22
2022-10-13T20:54:47.675Z,100529.44
2022-10-13T20:57:15.431Z,100526.75
2022-10-13T20:59:45.245Z,100519.78
2022-10-13T21:02:13.954Z,100524.41
2022-10-13T21:04:42.143Z,100520.16
2022-10-13T21:07:09.713Z,100529.78
2022-10-13T21:09:37.633Z,100523.22
2022-10-13T21:12:07.802Z,100520.88
2022-10-13T21:14:38.272Z,100513.53
2022-10-13T21:17:07.278Z,100514.72
2022-10-13T21:19:36.422Z,100511.56
2022-10-13T21:22:03.982Z,100513.91
2022-10-13T21:24:32.168Z,100513.91
2022-10-13T21:26:59.658Z,100508.13
2022-10-13T21:29:27.538Z,100511.63
2022-10-13T21:31:55.733Z,100512.41
2022-10-13T21:34:23.785Z,100513.19
2022-10-13T21:36:52.089Z,100510.84
2022-10-13T21:39:19.816Z,100508.50
2022-10-13T21:41:47.425Z,100511.94
2022-10-13T21:44:15.048Z,100509.19
2022-10-13T21:46:43.023Z,100509.94
2022-10-13T21:49:11.232Z,100512.63
2022-10-13T21:51:40.376Z,100510.66
2022-10-13T21:54:13.414Z,100511.34
2022-10-13T21:56:45.428Z,100507.84
2022-10-13T21:59:16.050Z,100517.09
2022-10-13T22:01:45.415Z,100506.59
2022-10-13T22:04:15.730Z,100503.38
2022-10-13T22:06:43.461Z,100505.66
2022-10-13T22:09:11.838Z,100508.66
2022-10-13T22:11:40.361Z,100501.59
2022-10-13T22:14:14.375Z,100508.81
2022-10-13T22:16:46.872Z,100505.94
2022-10-13T22:19:33.363Z,100507.38
2022-10-13T22:22:00.864Z,100505.63
2022-10-13T22:24:28.469Z,100503.22
2022-10-13T22:26:56.721Z,100504.72
2022-10-13T22:29:25.299Z,100500.88
2022-10-13T22:31:57.888Z,100495.88
2022-10-13T22:34:26.504Z,100503.28
2022-10-13T22:36:54.731Z,100504.94
2022-10-13T22:39:23.593Z,100501.09
2022-10-13T22:41:54.145Z,100505.75
2022-10-13T22:44:21.859Z,100498.88
2022-10-13T22:46:49.383Z,100491.19
2022-10-13T22:49:17.129Z,100496.22
2022-10-13T22:51:44.625Z,100495.09
2022-10-13T22:54:12.505Z,100492.75
2022-10-13T22:56:41.715Z,100490.06
2022-10-13T22:59:09.862Z,100487.34
2022-10-13T23:01:37.426Z,100493.53
2022-10-13T23:04:05.736Z,100492.75
2022-10-13T23:06:35.249Z,100488.88
2022-10-13T23:09:09.163Z,100490.47
2022-10-13T23:11:37.565Z,100490.47
2022-10-13T23:14:06.523Z,100489.25
2022-10-13T23:16:34.296Z,100491.53
2022-10-13T23:19:02.830Z,100488.78
2022-10-13T23:21:31.200Z,100482.97
2022-10-13T23:24:03.058Z,100484.78
2022-10-13T23:26:33.930Z,100484.78
2022-10-13T23:29:02.869Z,100496.31
2022-10-13T23:31:30.599Z,100494.75
2022-10-13T23:33:58.912Z,100497.44
2022-10-13T23:36:30.980Z,100503.63
2022-10-13T23:39:05.588Z,100500.97
2022-10-13T23:41:35.132Z,100501.47
2022-10-13T23:44:03.282Z,100498.41
2022-10-13T23:46:31.625Z,100501.88
2022-10-13T23:48:59.100Z,100494.91
2022-10-13T23:51:27.204Z,100492.19
2022-10-13T23:53:55.801Z,100494.13
2022-10-13T23:56:23.881Z,100501.47
2022-10-13T23:58:51.812Z,100496.75
